ADDS METAR Data INFO
IDs: Format: Raw Decoded Include TAF

Data at: 0106 UTC 21 Oct 2017

KPUJ 210055Z AUTO 00000KT 10SM CLR 18/12 A3022 RMK AO2
KPUJ 210035Z AUTO 00000KT 10SM CLR 17/13 A3022 RMK AO2
KPUJ 210015Z AUTO 00000KT 10SM CLR 18/12 A3021 RMK AO2
KPUJ 202355Z AUTO 00000KT 10SM CLR 18/14 A3021 RMK AO2
KPUJ 202335Z AUTO 00000KT 10SM CLR 20/13 A3020 RMK AO2
KPUJ 202315Z AUTO 00000KT 10SM CLR 20/13 A3020 RMK AO2
KPUJ 202255Z AUTO 00000KT 10SM CLR 21/14 A3019 RMK AO2
KPUJ 202235Z AUTO 00000KT 10SM CLR 23/15 A3020 RMK AO2
KPUJ 202215Z AUTO 00000KT 10SM CLR 23/15 A3019 RMK AO2
KPUJ 202155Z AUTO 00000KT 10SM CLR 25/12 A3019 RMK AO2
KPUJ 202135Z AUTO 00000KT 10SM CLR 26/12 A3019 RMK AO2
KPUJ 202115Z AUTO 10003KT 10SM CLR 26/11 A3019 RMK AO2
KPUJ 202055Z AUTO 00000KT 10SM CLR 26/11 A3020 RMK AO2
KPUJ 202035Z AUTO 00000KT 10SM CLR 26/11 A3021 RMK AO2
KPUJ 202015Z AUTO 10004KT 10SM CLR 26/11 A3021 RMK AO2
KPUJ 201955Z AUTO 06003KT 10SM CLR 26/11 A3021 RMK AO2
KPUJ 201935Z AUTO 00000KT 7SM CLR 26/12 A3022 RMK AO2
KPUJ 201915Z AUTO 08004KT 10SM CLR 26/10 A3022 RMK AO2
KPUJ 201855Z AUTO 08004KT 10SM CLR 26/10 A3023 RMK AO2
KPUJ 201835Z AUTO 00000KT 10SM CLR 26/12 A3024 RMK AO2
KPUJ 201815Z AUTO 04004KT 10SM CLR 25/12 A3025 RMK AO2
KPUJ 201755Z AUTO 05003KT 10SM CLR 25/12 A3026 RMK AO2
KPUJ 201735Z AUTO 00000KT 10SM CLR 24/11 A3027 RMK AO2
KPUJ 201715Z AUTO 33003KT 10SM CLR 24/12 A3028 RMK AO2
KPUJ 201655Z AUTO 00000KT 10SM CLR 23/12 A3029 RMK AO2
KPUJ 201635Z AUTO 04003KT 10SM CLR 23/13 A3029 RMK AO2
KPUJ 201615Z AUTO 00000KT 10SM CLR 22/12 A3030 RMK AO2
KPUJ 201555Z AUTO 01003KT 10SM CLR 22/13 A3030 RMK AO2
KPUJ 201535Z AUTO 00000KT 10SM CLR 21/14 A3031 RMK AO2
KPUJ 201515Z AUTO 00000KT 10SM CLR 20/13 A3032 RMK AO2
KPUJ 201455Z AUTO 05003KT 10SM CLR 19/15 A3031 RMK AO2
KPUJ 201435Z AUTO 05003KT 10SM CLR 18/15 A3030 RMK AO2
KPUJ 201415Z AUTO 04003KT 10SM CLR 18/15 A3031 RMK AO2
KPUJ 201355Z AUTO 00000KT 10SM CLR 17/13 A3030 RMK AO2
KPUJ 201335Z AUTO 00000KT 10SM CLR 17/13 A3030 RMK AO2
KPUJ 201315Z AUTO 00000KT 10SM CLR 16/13 A3030 RMK AO2
KPUJ 201255Z AUTO 00000KT 10SM CLR 13/13 A3030 RMK AO2
KPUJ 201235Z AUTO 00000KT 10SM CLR 12/11 A3030 RMK AO2
KPUJ 201215Z AUTO 00000KT 10SM CLR 11/10 A3029 RMK AO2
KPUJ 201155Z AUTO 00000KT 10SM CLR 12/10 A3028 RMK AO2
KPUJ 201135Z AUTO 00000KT 10SM CLR 11/11 A3028 RMK AO2
KPUJ 201115Z AUTO 00000KT 10SM CLR 11/11 A3028 RMK AO2
KPUJ 201055Z AUTO 00000KT 10SM CLR 11/10 A3028 RMK AO2
KPUJ 201035Z AUTO 00000KT 10SM CLR 11/11 A3028 RMK AO2
KPUJ 201015Z AUTO 00000KT 10SM CLR 11/11 A3027 RMK AO2
KPUJ 200955Z AUTO 00000KT 10SM CLR 12/10 A3026 RMK AO2
KPUJ 200935Z AUTO 00000KT 10SM CLR 11/11 A3026 RMK AO2
KPUJ 200915Z AUTO 00000KT 10SM CLR 10/10 A3026 RMK AO2
KPUJ 200855Z AUTO 00000KT 10SM CLR 12/10 A3026 RMK AO2
KPUJ 200835Z AUTO 00000KT 10SM CLR 12/10 A3025 RMK AO2
KPUJ 200815Z AUTO 00000KT 10SM CLR 12/10 A3025 RMK AO2
KPUJ 200755Z AUTO 00000KT 10SM CLR 12/10 A3026 RMK AO2
KPUJ 200735Z AUTO 00000KT 10SM CLR 12/10 A3026 RMK AO2
KPUJ 200715Z AUTO 00000KT 10SM CLR 12/10 A3026 RMK AO2
KPUJ 200655Z AUTO 00000KT 10SM CLR 12/10 A3026 RMK AO2
KPUJ 200635Z AUTO 00000KT 10SM CLR 14/10 A3026 RMK AO2
KPUJ 200615Z AUTO 04003KT 10SM CLR 16/10 A3026 RMK AO2
KPUJ 200555Z AUTO 02003KT 10SM CLR 16/10 A3026 RMK AO2
KPUJ 200535Z AUTO 02003KT 10SM CLR 17/10 A3026 RMK AO2
KPUJ 200515Z AUTO 02004KT 10SM CLR 17/10 A3026 RMK AO2
KPUJ 200455Z AUTO 01004KT 10SM CLR 17/10 A3026 RMK AO2
KPUJ 200435Z AUTO 02004KT 10SM CLR 17/10 A3026 RMK AO2
KPUJ 200415Z AUTO 02003KT 10SM CLR 17/10 A3026 RMK AO2
KPUJ 200355Z AUTO 01003KT 10SM CLR 17/10 A3026 RMK AO2
KPUJ 200335Z AUTO 01004KT 10SM CLR 18/10 A3027 RMK AO2
KPUJ 200315Z AUTO 01003KT 10SM CLR 15/10 A3027 RMK AO2
KPUJ 200255Z AUTO 36003KT 10SM CLR 16/10 A3027 RMK AO2
KPUJ 200235Z AUTO 36003KT 10SM CLR 16/10 A3026 RMK AO2
KPUJ 200215Z AUTO 01003KT 10SM CLR 17/10 A3026 RMK AO2
KPUJ 200155Z AUTO 01003KT 10SM CLR 18/10 A3026 RMK AO2
KPUJ 200135Z AUTO 01004KT 10SM CLR 17/10 A3026 RMK AO2
KPUJ 200115Z AUTO 36004KT 10SM CLR 17/10 A3026 RMK AO2
KPUJ 200055Z AUTO 36004KT 10SM CLR 19/10 A3026 RMK AO2
KPUJ 200035Z AUTO 36004KT 10SM CLR 18/11 A3026 RMK AO2
KPUJ 200015Z AUTO 36003KT 10SM CLR 17/12 A3025 RMK AO2
KPUJ 192355Z AUTO 33004KT 10SM CLR 17/12 A3026 RMK AO2
KPUJ 192335Z AUTO 00000KT 10SM CLR 17/12 A3025 RMK AO2
KPUJ 192315Z AUTO 32003KT 10SM CLR 18/12 A3025 RMK AO2
KPUJ 192255Z AUTO 00000KT 10SM CLR 19/12 A3024 RMK AO2
KPUJ 192235Z AUTO 36003KT 10SM CLR 22/12 A3024 RMK AO2
KPUJ 192215Z AUTO 35003KT 10SM CLR 23/11 A3024 RMK AO2
KPUJ 192155Z AUTO 00000KT 10SM CLR 24/10 A3025 RMK AO2
KPUJ 192135Z AUTO 36003KT 10SM CLR 25/11 A3025 RMK AO2
KPUJ 192115Z AUTO 02005KT 10SM CLR 25/11 A3025 RMK AO2
KPUJ 192055Z AUTO 05005KT 10SM CLR 25/11 A3025 RMK AO2
KPUJ 192035Z AUTO 36004KT 10SM CLR 25/11 A3025 RMK AO2
KPUJ 192015Z AUTO 34003KT 10SM CLR 25/10 A3026 RMK AO2
KPUJ 191955Z AUTO 02004KT 10SM CLR 25/10 A3025 RMK AO2
KPUJ 191935Z AUTO 00000KT 10SM CLR 24/10 A3026 RMK AO2
KPUJ 191915Z AUTO 34003KT 10SM CLR 25/11 A3026 RMK AO2
KPUJ 191855Z AUTO 09003KT 10SM CLR 24/11 A3027 RMK AO2
KPUJ 191835Z AUTO 00000KT 10SM CLR 24/11 A3027 RMK AO2
KPUJ 191815Z AUTO 08005KT 10SM CLR 23/11 A3029 RMK AO2
KPUJ 191755Z AUTO 00000KT 10SM CLR 23/11 A3030 RMK AO2
KPUJ 191735Z AUTO 12004KT 10SM CLR 23/11 A3031 RMK AO2
KPUJ 191715Z AUTO 01004KT 10SM CLR 22/10 A3032 RMK AO2
KPUJ 191655Z AUTO 00000KT 10SM CLR 21/11 A3032 RMK AO2
KPUJ 191635Z AUTO 10004KT 10SM CLR 21/11 A3033 RMK AO2
KPUJ 191615Z AUTO 00000KT 10SM CLR 21/09 A3034 RMK AO2
KPUJ 191555Z AUTO 10004KT 10SM CLR 20/11 A3034 RMK AO2
KPUJ 191535Z AUTO 12004KT 10SM CLR 20/11 A3034 RMK AO2
KPUJ 191515Z AUTO 11004KT 10SM CLR 18/10 A3035 RMK AO2
KPUJ 191455Z AUTO 13003KT 10SM CLR 17/10 A3034 RMK AO2
KPUJ 191435Z AUTO 12003KT 10SM CLR 17/11 A3034 RMK AO2
KPUJ 191415Z AUTO 00000KT 10SM CLR 16/10 A3034 RMK AO2
KPUJ 191355Z AUTO 10003KT 10SM CLR 15/10 A3034 RMK AO2
KPUJ 191335Z AUTO 13004KT 10SM CLR 15/10 A3033 RMK AO2
KPUJ 191315Z AUTO 10003KT 10SM CLR 15/10 A3032 RMK AO2